Flight Track Log - Related Links

Times and Time Zones

All times are in EDT time to prevent confusion due to time zone crossing. See the TAM3275 flight status page for this flight to view local times or setup timezone preferences in your user account.

Time Position Orientation Groundspeed Altitude Reporting Facility
EDT Latitude Longitude Course Direction KTS MPH feet Rate Location/Type
Sun 08:09:07 PM -21.2890 -47.8770 206° Southwest 289 333 7,800  Level FlightAware ADS-B
Sun 08:09:37 PM -21.3250 -47.8960 206° Southwest 284 327 9,500 2,314 Climbing FlightAware ADS-B
Sun 08:10:17 PM -21.3760 -47.9220 205° Southwest 320 368 10,500 1,341 Climbing FlightAware ADS-B
Sun 08:11:02 PM -21.4420 -47.9540 204° Southwest 368 423 11,400 1,694 Climbing FlightAware ADS-B
Sun 08:11:42 PM -21.5040 -47.9850 205° Southwest 377 434 12,900 2,229 Climbing FlightAware ADS-B
Sun 08:12:12 PM -21.5480 -48.0150 212° Southwest 384 442 14,000 2,057 Climbing FlightAware ADS-B
Sun 08:12:52 PM -21.5780 -48.0840 245° Southwest 392 451 15,300 2,100 Climbing FlightAware ADS-B
Sun 08:13:32 PM -21.6030 -48.1560 250° West 391 450 16,800 2,047 Climbing FlightAware ADS-B
Sun 08:14:17 PM -21.6330 -48.2420 249° West 399 459 18,200 2,047 Climbing FlightAware ADS-B
Sun 08:14:57 PM -21.6740 -48.3070 236° Southwest 398 458 19,700 2,291 Climbing FlightAware ADS-B
Sun 08:15:12 PM -21.6960 -48.3200 209° Southwest 392 451 20,300 2,400 Climbing FlightAware ADS-B
Sun 08:15:27 PM -21.7240 -48.3280 195° South 390 449 20,900 2,291 Climbing FlightAware ADS-B
Sun 08:16:07 PM -21.7950 -48.3120 168° South 394 453 22,400 1,575 Climbing FlightAware ADS-B
Sun 08:16:47 PM -21.8550 -48.2690 146° Southeast 396 456 23,000 400 Climbing FlightAware ADS-B
Sun 08:17:37 PM -21.9320 -48.2140 146° Southeast 395 455 23,000  Level FlightAware ADS-B
Sun 08:18:17 PM -21.9950 -48.1690 146° Southeast 395 455 23,000  Level FlightAware ADS-B
Sun 08:18:57 PM -22.0550 -48.1260 146° Southeast 393 452 23,000  Level FlightAware ADS-B
Sun 08:19:42 PM -22.1200 -48.0800 147° Southeast 395 455 23,000  Level FlightAware ADS-B
Sun 08:20:17 PM -22.1770 -48.0390 146° Southeast 395 455 23,000  Level FlightAware ADS-B
Sun 08:21:07 PM -22.2520 -47.9850 146° Southeast 395 455 23,000  Level FlightAware ADS-B
Sun 08:21:47 PM -22.3150 -47.9400 147° Southeast 394 453 23,000  Level FlightAware ADS-B
Sun 08:22:27 PM -22.3740 -47.8970 146° Southeast 395 455 23,000  Level FlightAware ADS-B
Sun 08:23:12 PM -22.4420 -47.8480 146° Southeast 397 457 23,000  Level FlightAware ADS-B
Sun 08:23:52 PM -22.5040 -47.8040 147° Southeast 396 456 23,000  Level FlightAware ADS-B
Sun 08:24:37 PM -22.5730 -47.7540 146° Southeast 394 453 23,000  Level FlightAware ADS-B
Sun 08:25:17 PM -22.6340 -47.7100 146° Southeast 397 457 23,000 -525 Level FlightAware ADS-B
Sun 08:25:57 PM -22.6930 -47.6640 144° Southeast 400 460 22,300 -1,412 Descending FlightAware ADS-B
Sun 08:26:42 PM -22.7540 -47.6070 139° Southeast 388 447 21,000 -1,765 Descending FlightAware ADS-B
Sun 08:27:22 PM -22.8090 -47.5560 139° Southeast 384 442 19,800 -1,835 Descending FlightAware ADS-B
Sun 08:28:07 PM -22.8700 -47.4990 139° Southeast 382 440 18,400 -1,906 Descending FlightAware ADS-B
Sun 08:28:47 PM -22.9230 -47.4500 140° Southeast 369 425 17,100 -1,875 Descending FlightAware ADS-B
Sun 08:29:27 PM -22.9770 -47.4000 140° Southeast 363 418 15,900 -1,835 Descending FlightAware ADS-B
Sun 08:30:12 PM -23.0340 -47.3470 139° Southeast 362 417 14,500 -1,765 Descending FlightAware ADS-B
Sun 08:30:52 PM -23.0820 -47.3020 139° Southeast 349 402 13,400 -1,200 Descending FlightAware ADS-B
Sun 08:31:32 PM -23.1320 -47.2560 140° Southeast 323 372 12,900 -900 Descending FlightAware ADS-B
Sun 08:32:12 PM -23.1760 -47.2150 139° Southeast 303 349 12,200 -1,333 Descending FlightAware ADS-B
Sun 08:33:02 PM -23.2250 -47.1600 134° Southeast 305 351 10,900 -1,200 Descending FlightAware ADS-B
Sun 08:33:52 PM -23.2580 -47.1080 125° Southeast 300 345 10,200 -1,125 Descending FlightAware ADS-B
Sun 08:34:22 PM -23.2850 -47.0650 124° Southeast 298 343 9,400 -1,440 Descending FlightAware ADS-B
Sun 08:34:42 PM -23.2980 -47.0440 124° Southeast 299 344 9,000 -1,467 Descending FlightAware ADS-B
Sun 08:35:07 PM -23.3190 -47.0120 126° Southeast 299 344 8,300 -1,600 Descending FlightAware ADS-B
Sun 08:35:42 PM -23.3470 -46.9660 124° Southeast 293 337 7,400 -1,477 Descending FlightAware ADS-B
Sun 08:36:12 PM -23.3710 -46.9300 126° Southeast 287 330 6,700 -1,400 Descending FlightAware ADS-B
Sun 08:36:42 PM -23.3920 -46.8960 124° Southeast 282 325 6,000 -1,320 Descending FlightAware ADS-B
Sun 08:37:02 PM -23.4040 -46.8760 123° Southeast 279 321 5,600 -960 Descending FlightAware ADS-B
Sun 08:37:32 PM -23.4280 -46.8390 125° Southeast 259 298 5,200 -600 Descending FlightAware ADS-B
Sun 08:38:02 PM -23.4470 -46.8090 125° Southeast 242 278 5,000 -267 Descending FlightAware ADS-B
Sun 08:38:17 PM -23.4570 -46.7930 124° Southeast 232 267 5,000  Level FlightAware ADS-B
Sun 08:38:42 PM -23.4720 -46.7700 125° Southeast 227 261 5,000  Level FlightAware ADS-B
Sun 08:38:57 PM -23.4810 -46.7580 129° Southeast 212 244 5,000 -120 Level FlightAware ADS-B
Sun 08:39:32 PM -23.5060 -46.7400 147° Southeast 174 200 4,900 -400 Descending FlightAware ADS-B
Sun 08:39:57 PM -23.5210 -46.7290 146° Southeast 166 191 4,600 -873 Descending FlightAware ADS-B
Sun 08:40:27 PM -23.5400 -46.7160 148° Southeast 150 173 4,100 -873 Descending FlightAware ADS-B
Sun 08:40:52 PM -23.5540 -46.7070 149° Southeast 146 168 3,800 -655 Descending FlightAware ADS-B
Sun 08:41:22 PM -23.5710 -46.6950 147° Southeast 140 161 3,500 -600 Descending FlightAware ADS-B
Sun 08:41:52 PM -23.5850 -46.6850 147° Southeast 138 159 3,200 -667 Descending FlightAware ADS-B
Sun 08:42:07 PM -23.5950 -46.6780 147° Southeast 139 160 3,000 -764 Descending FlightAware ADS-B
Sun 08:42:47 PM -23.6180 -46.6630 149° Southeast 141 162 2,500 -800 Descending FlightAware ADS-B
Sun 08:42:52 PM -23.6200 -46.6610 138° Southeast 141 162 2,400 -1,200 Descending FlightAware ADS-B
Sun 08:46:00 PM -23.6267 -46.6554 287° West  Level Estimated

Login

Don't have an account? Register now (free) for customized features, flight alerts, and more!